Time;durP1;ratioP1;P1;durP2;ratioP2;P2;SDS_P1;SDS_P2;PMS_P1;PMS_P2;Temp;Humidity;BMP_temperature;BMP_pressure;BME280_temperature;BME280_humidity;BME280_pressure;Samples;Min_cycle;Max_cycle;Signal;HPM_P1;HPM_P2
2021/07/27 00:02:05;;;;;;;7.93;6.60;;;20.90;99.90;;;;;;5050186;28;20453;-74
2021/07/27 00:04:33;;;;;;;7.50;6.27;;;20.90;1.00;;;;;;5049989;28;20431;-75
2021/07/27 00:07:02;;;;;;;6.43;5.90;;;20.80;1.00;;;;;;5048449;28;20435;-73
2021/07/27 00:09:30;;;;;;;6.93;5.90;;;20.80;34.00;;;;;;5049496;28;20769;-73
2021/07/27 00:11:59;;;;;;;6.43;5.80;;;20.90;78.40;;;;;;5049817;28;20429;-73
2021/07/27 00:14:28;;;;;;;8.20;5.60;;;20.90;9.80;;;;;;5049595;28;20892;-73
2021/07/27 00:16:57;;;;;;;6.07;5.47;;;20.90;99.90;;;;;;5049505;28;20433;-73
2021/07/27 00:19:25;;;;;;;7.10;5.67;;;20.80;1.00;;;;;;5049389;28;20401;-72
2021/07/27 00:21:53;;;;;;;7.27;5.50;;;20.80;1.00;;;;;;5048511;28;20442;-73
2021/07/27 00:24:26;;;;;;;5.73;5.17;;;20.70;1.00;;;;;;5049673;28;20424;-74
2021/07/27 00:26:55;;;;;;;6.03;5.43;;;20.80;24.70;;;;;;5049010;28;20467;-74
2021/07/27 00:29:23;;;;;;;6.90;6.23;;;20.80;1.00;;;;;;5049526;28;20441;-74
2021/07/27 00:31:53;;;;;;;6.50;5.67;;;20.60;76.20;;;;;;5049577;28;20414;-74
2021/07/27 00:34:21;;;;;;;6.00;5.40;;;20.60;99.90;;;;;;5049615;28;20394;-74
2021/07/27 00:36:49;;;;;;;6.30;5.10;;;20.60;1.00;;;;;;5049147;28;20423;-73
2021/07/27 00:39:17;;;;;;;7.80;6.07;;;20.60;1.00;;;;;;5049435;28;20394;-74
2021/07/27 00:41:45;;;;;;;7.40;6.13;;;20.60;1.00;;;;;;5049764;28;20456;-74
2021/07/27 00:44:13;;;;;;;7.67;6.27;;;20.50;99.90;;;;;;5049772;28;20420;-74
2021/07/27 00:46:41;;;;;;;8.13;5.50;;;20.60;1.00;;;;;;5049620;28;20441;-74
2021/07/27 00:49:11;;;;;;;7.17;5.30;;;20.70;99.90;;;;;;5049630;28;20397;-75
2021/07/27 00:51:40;;;;;;;6.03;5.37;;;20.70;99.90;;;;;;5049648;28;20426;-74
2021/07/27 00:54:08;;;;;;;7.27;5.37;;;20.60;19.80;;;;;;5049965;28;20401;-74
2021/07/27 00:56:37;;;;;;;8.00;5.13;;;20.50;1.00;;;;;;5048209;28;20462;-73
2021/07/27 00:59:05;;;;;;;7.50;5.50;;;20.50;99.90;;;;;;5049220;28;20532;-74
2021/07/27 01:01:35;;;;;;;6.43;5.83;;;20.50;99.90;;;;;;5048870;28;20474;-74
2021/07/27 01:04:03;;;;;;;6.10;5.50;;;20.60;99.90;;;;;;5051586;28;20816;-72
2021/07/27 01:06:33;;;;;;;9.83;6.47;;;20.60;99.90;;;;;;5052623;28;20402;-73
2021/07/27 01:09:02;;;;;;;7.70;6.17;;;20.60;99.90;;;;;;5053429;28;20525;-73
2021/07/27 01:11:30;;;;;;;7.87;6.27;;;20.60;99.90;;;;;;5052830;28;20455;-74
2021/07/27 01:13:59;;;;;;;7.67;6.37;;;20.50;99.90;;;;;;5053141;28;20632;-74
2021/07/27 01:16:29;;;;;;;6.83;6.07;;;20.50;99.90;;;;;;5052511;28;20421;-73
2021/07/27 01:19:06;;;;;;;6.77;6.07;;;20.50;99.90;;;;;;5053108;28;20394;-73
2021/07/27 01:38:21;;;;;;;8.50;6.27;;;20.40;99.90;;;;;;5053319;28;21020;-73
2021/07/27 01:40:57;;;;;;;10.23;7.10;;;20.30;99.90;;;;;;5052921;28;20439;-72
2021/07/27 01:43:29;;;;;;;11.50;7.83;;;20.30;99.90;;;;;;5052681;28;20558;-73
2021/07/27 01:45:59;;;;;;;8.33;6.27;;;20.30;99.90;;;;;;5050636;28;20446;-73
2021/07/27 01:48:37;;;;;;;9.37;7.43;;;20.30;99.90;;;;;;5051568;28;20957;-73
2021/07/27 01:51:23;;;;;;;9.00;6.67;;;20.40;99.90;;;;;;5052760;28;21081;-73
2021/07/27 01:53:52;;;;;;;10.70;7.70;;;20.40;99.90;;;;;;5053126;28;20411;-73
2021/07/27 01:56:23;;;;;;;8.13;6.50;;;20.40;99.90;;;;;;5051529;28;20433;-73
2021/07/27 01:58:53;;;;;;;7.33;5.63;;;20.50;99.90;;;;;;5052485;28;20560;-72
2021/07/27 02:01:23;;;;;;;8.53;7.50;;;20.40;99.90;;;;;;5052343;28;20443;-73
2021/07/27 02:03:51;;;;;;;6.63;6.03;;;20.50;99.90;;;;;;5052755;28;20451;-73
2021/07/27 02:06:19;;;;;;;8.40;6.93;;;20.50;99.90;;;;;;5051815;28;20427;-73
2021/07/27 02:08:48;;;;;;;7.37;6.33;;;20.50;99.90;;;;;;5052448;28;20412;-74
2021/07/27 02:11:19;;;;;;;5.97;5.47;;;20.60;99.90;;;;;;5073591;28;20521;-74
2021/07/27 02:13:50;;;;;;;6.47;5.10;;;20.60;99.90;;;;;;5055745;28;20776;-74
2021/07/27 02:16:18;;;;;;;7.10;5.60;;;20.60;99.90;;;;;;5055152;28;20427;-73
2021/07/27 02:18:46;;;;;;;8.40;7.07;;;20.50;99.90;;;;;;5056368;28;20530;-73
2021/07/27 02:21:15;;;;;;;9.10;7.37;;;20.50;99.90;;;;;;5057429;28;20420;-75
2021/07/27 02:23:43;;;;;;;7.00;6.37;;;20.50;99.90;;;;;;5060205;28;20433;-75
2021/07/27 02:26:11;;;;;;;7.53;6.83;;;20.60;99.90;;;;;;5061936;28;20409;-75
2021/07/27 02:28:39;;;;;;;7.90;5.87;;;20.60;99.90;;;;;;5062461;28;20409;-74
2021/07/27 02:31:14;;;;;;;7.20;6.50;;;20.60;99.90;;;;;;5062437;28;20890;-74
2021/07/27 02:33:43;;;;;;;7.40;6.53;;;20.50;99.90;;;;;;5064396;28;20450;-74
2021/07/27 02:36:11;;;;;;;7.33;6.40;;;20.50;99.90;;;;;;5063811;28;20420;-73
2021/07/27 02:38:39;;;;;;;7.37;6.60;;;20.50;99.90;;;;;;5057283;28;20437;-73
2021/07/27 02:41:07;;;;;;;6.77;5.63;;;20.50;99.90;;;;;;5052150;28;20417;-73
2021/07/27 02:43:35;;;;;;;6.73;6.10;;;20.70;99.90;;;;;;5051983;28;21008;-73
2021/07/27 02:46:04;;;;;;;6.67;6.03;;;20.60;99.90;;;;;;5050016;28;20768;-73
2021/07/27 02:48:34;;;;;;;6.50;5.80;;;20.70;99.90;;;;;;5050461;28;20438;-74
2021/07/27 02:51:03;;;;;;;10.90;7.20;;;20.60;99.90;;;;;;5051818;28;20497;-74
2021/07/27 02:53:31;;;;;;;7.30;6.47;;;20.50;99.90;;;;;;5050056;28;20428;-75
2021/07/27 02:56:00;;;;;;;6.83;6.23;;;20.40;99.90;;;;;;5051188;28;20423;-74
2021/07/27 02:58:31;;;;;;;7.03;6.17;;;20.40;99.90;;;;;;5051486;28;20423;-74
2021/07/27 03:00:59;;;;;;;8.37;6.53;;;20.50;99.90;;;;;;5051399;28;20440;-73
2021/07/27 03:03:28;;;;;;;7.37;5.83;;;20.50;99.90;;;;;;5051581;28;20472;-73
2021/07/27 03:06:00;;;;;;;8.23;6.70;;;20.50;99.90;;;;;;5051057;28;20402;-73
2021/07/27 03:08:46;;;;;;;6.87;6.20;;;20.60;99.90;;;;;;5050933;28;20484;-73
2021/07/27 03:11:15;;;;;;;8.07;6.17;;;20.60;99.90;;;;;;5051345;28;20443;-73
2021/07/27 03:13:43;;;;;;;9.40;8.47;;;20.50;99.90;;;;;;5050887;28;20405;-73
2021/07/27 03:16:15;;;;;;;7.87;6.67;;;20.50;99.90;;;;;;5050489;28;20961;-73
2021/07/27 03:18:44;;;;;;;6.67;5.53;;;20.60;99.90;;;;;;5050745;28;20468;-73
2021/07/27 03:21:14;;;;;;;7.20;6.57;;;20.50;99.90;;;;;;5051017;28;20531;-73
2021/07/27 03:23:42;;;;;;;7.23;6.50;;;20.40;99.90;;;;;;5065837;28;20540;-73
2021/07/27 03:26:10;;;;;;;8.53;7.70;;;20.40;99.90;;;;;;5050456;28;21296;-74
2021/07/27 03:28:40;;;;;;;8.47;7.27;;;20.30;99.90;;;;;;5050080;28;20449;-74
2021/07/27 03:31:08;;;;;;;7.10;6.00;;;20.30;99.90;;;;;;5051088;28;20962;-74
2021/07/27 03:33:37;;;;;;;7.50;5.50;;;20.30;99.90;;;;;;5050505;28;20960;-74
2021/07/27 03:36:05;;;;;;;9.27;7.20;;;20.30;99.90;;;;;;5050020;28;20419;-74
2021/07/27 03:38:35;;;;;;;9.63;7.07;;;20.30;99.90;;;;;;5050199;28;20415;-74
2021/07/27 03:41:04;;;;;;;8.23;6.90;;;20.10;99.90;;;;;;5050515;28;20417;-74
2021/07/27 03:43:32;;;;;;;8.10;7.30;;;20.10;99.90;;;;;;5050397;28;20470;-74
2021/07/27 03:46:01;;;;;;;7.73;6.93;;;20.10;99.90;;;;;;5049975;28;20444;-74
2021/07/27 03:48:29;;;;;;;7.80;7.10;;;20.20;99.90;;;;;;5050293;28;20861;-73
2021/07/27 03:50:58;;;;;;;7.13;5.80;;;20.40;99.90;;;;;;5050258;28;20439;-73
2021/07/27 03:53:26;;;;;;;8.00;7.17;;;20.70;99.90;;;;;;5050392;28;20394;-73
2021/07/27 03:55:56;;;;;;;7.37;6.50;;;20.60;99.90;;;;;;5050120;28;20502;-73
2021/07/27 03:58:24;;;;;;;8.80;7.03;;;20.50;99.90;;;;;;5050446;28;20398;-73
2021/07/27 04:00:52;;;;;;;9.03;7.20;;;20.40;99.90;;;;;;5050869;28;20447;-73
2021/07/27 04:03:20;;;;;;;9.33;8.20;;;20.30;99.90;;;;;;5050292;28;20429;-73
2021/07/27 04:05:48;;;;;;;8.23;7.43;;;20.20;99.90;;;;;;5049779;28;20402;-73
2021/07/27 04:08:17;;;;;;;7.50;6.70;;;20.20;99.90;;;;;;5050423;28;20443;-74
2021/07/27 04:10:46;;;;;;;8.23;6.90;;;20.20;99.90;;;;;;5050191;28;20490;-74
2021/07/27 04:13:15;;;;;;;7.93;6.73;;;20.30;99.90;;;;;;5050080;28;20406;-73
2021/07/27 04:15:44;;;;;;;7.63;6.90;;;20.30;99.90;;;;;;5049913;28;20402;-74
2021/07/27 04:18:12;;;;;;;9.17;7.57;;;20.40;99.90;;;;;;5049829;28;20405;-74
2021/07/27 04:20:41;;;;;;;8.43;7.50;;;20.40;99.90;;;;;;5049152;28;20457;-73
2021/07/27 04:23:09;;;;;;;8.50;6.17;;;20.40;99.90;;;;;;5049772;28;20434;-72
2021/07/27 04:25:37;;;;;;;10.90;8.20;;;20.40;99.90;;;;;;5049212;28;20430;-74
2021/07/27 04:28:06;;;;;;;9.70;7.70;;;20.50;99.90;;;;;;5049475;28;20394;-73
2021/07/27 04:30:35;;;;;;;8.37;7.57;;;20.60;99.90;;;;;;5048832;28;20504;-73
2021/07/27 04:33:04;;;;;;;7.80;7.10;;;20.90;99.90;;;;;;5049335;28;20423;-73
2021/07/27 04:35:32;;;;;;;9.33;6.30;;;22.10;99.90;;;;;;5048944;28;20420;-73
2021/07/27 04:38:00;;;;;;;6.93;5.83;;;23.40;99.90;;;;;;5049039;28;20421;-73
2021/07/27 04:40:29;;;;;;;7.00;6.33;;;24.30;99.90;;;;;;5049400;28;20447;-71
2021/07/27 04:42:57;;;;;;;6.83;6.23;;;25.40;99.90;;;;;;5049364;28;20765;-72
2021/07/27 04:45:25;;;;;;;7.40;6.30;;;26.00;99.90;;;;;;5049127;28;20397;-73
2021/07/27 04:47:55;;;;;;;6.30;5.47;;;26.50;99.90;;;;;;5049521;28;20398;-74
2021/07/27 04:50:24;;;;;;;6.73;5.80;;;27.50;99.90;;;;;;5049354;28;20443;-73
2021/07/27 04:52:57;;;;;;;6.37;5.77;;;28.10;99.90;;;;;;5048546;28;20944;-73
2021/07/27 04:55:26;;;;;;;8.80;6.43;;;28.00;99.90;;;;;;5047648;28;20441;-74
2021/07/27 04:57:54;;;;;;;6.03;5.43;;;28.90;99.90;;;;;;5049819;28;20439;-74
2021/07/27 05:00:27;;;;;;;9.30;5.57;;;29.70;99.90;;;;;;5049613;28;20439;-73
2021/07/27 05:02:57;;;;;;;6.43;5.80;;;30.30;99.90;;;;;;5049261;28;20813;-74
2021/07/27 05:05:26;;;;;;;6.13;5.53;;;30.20;99.90;;;;;;5048573;28;20921;-72
2021/07/27 05:07:55;;;;;;;6.00;4.67;;;30.20;99.90;;;;;;5047244;28;20968;-73
2021/07/27 05:10:23;;;;;;;6.63;6.03;;;31.10;99.90;;;;;;5039315;23;20531;-82
2021/07/27 05:12:51;;;;;;;5.63;5.00;;;31.20;99.90;;;;;;5016974;28;20503;-83
2021/07/27 05:15:20;;;;;;;6.50;5.37;;;31.70;99.90;;;;;;5045347;23;20496;-68
2021/07/27 05:17:48;;;;;;;7.10;4.93;;;32.00;99.90;;;;;;5029194;28;21213;-68
2021/07/27 05:20:17;;;;;;;5.70;5.20;;;32.50;99.90;;;;;;5029518;28;20444;-65
2021/07/27 05:22:46;;;;;;;5.70;5.00;;;32.70;99.90;;;;;;5029517;28;20427;-68
2021/07/27 05:25:14;;;;;;;5.83;5.23;;;32.60;99.90;;;;;;5029255;28;20479;-67
2021/07/27 05:27:42;;;;;;;6.57;5.87;;;32.30;99.90;;;;;;5029628;28;20430;-68
2021/07/27 05:30:12;;;;;;;4.63;4.23;;;32.10;99.90;;;;;;5029004;28;20441;-68
2021/07/27 05:32:41;;;;;;;6.77;4.87;;;32.60;99.90;;;;;;5027311;28;20456;-65
2021/07/27 05:35:11;;;;;;;5.43;4.93;;;32.60;99.90;;;;;;5027609;28;20429;-67
2021/07/27 05:37:41;;;;;;;5.47;4.90;;;31.10;99.90;;;;;;5027098;28;20934;-67
2021/07/27 05:40:10;;;;;;;6.30;5.70;;;29.10;99.90;;;;;;5028690;28;20499;-67
2021/07/27 05:42:38;;;;;;;5.63;5.00;;;27.50;99.90;;;;;;5029472;28;20495;-67
2021/07/27 05:45:07;;;;;;;6.07;5.47;;;26.50;99.90;;;;;;5029596;28;20544;-68
2021/07/27 05:47:35;;;;;;;7.33;5.30;;;25.70;99.90;;;;;;5027758;28;20958;-66
2021/07/27 05:50:07;;;;;;;6.37;5.70;;;25.10;99.90;;;;;;5029616;28;20446;-67
2021/07/27 05:52:35;;;;;;;6.90;5.50;;;24.70;99.90;;;;;;5033161;28;20810;-66
2021/07/27 05:55:06;;;;;;;10.70;6.10;;;24.40;99.90;;;;;;5033060;28;20431;-68
2021/07/27 05:57:35;;;;;;;6.67;5.87;;;24.20;99.90;;;;;;5032750;28;20464;-68
2021/07/27 06:00:03;;;;;;;5.47;4.93;;;24.00;99.90;;;;;;5032809;28;20546;-67
2021/07/27 06:02:36;;;;;;;5.67;5.13;;;24.00;99.90;;;;;;5030708;28;20415;-67
2021/07/27 06:05:05;;;;;;;6.53;5.23;;;23.90;99.90;;;;;;5031765;28;20496;-69
2021/07/27 06:07:33;;;;;;;6.87;4.80;;;23.90;99.90;;;;;;5031862;28;20482;-68
2021/07/27 06:10:02;;;;;;;8.47;5.00;;;23.80;99.90;;;;;;5032455;28;20431;-68
2021/07/27 06:12:31;;;;;;;6.80;5.50;;;23.70;99.90;;;;;;5031037;28;20410;-66
2021/07/27 06:14:59;;;;;;;6.47;4.93;;;23.80;99.90;;;;;;5030941;28;20462;-66
2021/07/27 06:17:27;;;;;;;5.33;4.60;;;23.80;99.90;;;;;;5030769;28;20448;-66
2021/07/27 06:19:56;;;;;;;5.43;4.70;;;23.90;99.90;;;;;;5032157;28;20407;-66
2021/07/27 06:22:24;;;;;;;4.60;4.20;;;23.70;99.90;;;;;;5031940;28;20402;-67
2021/07/27 06:24:54;;;;;;;5.53;4.67;;;23.70;99.90;;;;;;5032566;28;20799;-67
2021/07/27 06:27:22;;;;;;;6.30;5.10;;;23.40;99.90;;;;;;5031766;28;20423;-67
2021/07/27 06:29:52;;;;;;;5.37;4.03;;;23.50;99.90;;;;;;5032181;28;20411;-66
2021/07/27 06:32:21;;;;;;;7.10;4.93;;;23.60;99.90;;;;;;5031755;28;20434;-67
2021/07/27 06:34:49;;;;;;;4.87;4.10;;;23.80;99.90;;;;;;5031870;28;20424;-65
2021/07/27 06:37:17;;;;;;;5.53;4.27;;;23.90;99.90;;;;;;5029165;28;20439;-67
2021/07/27 06:39:45;;;;;;;4.90;4.33;;;24.00;99.90;;;;;;5031528;28;20407;-67
2021/07/27 06:42:13;;;;;;;6.03;5.00;;;24.20;99.90;;;;;;5031573;28;20403;-67
2021/07/27 06:44:41;;;;;;;6.50;3.60;;;24.50;99.90;;;;;;5031970;28;20815;-73
2021/07/27 06:47:11;;;;;;;4.87;4.27;;;24.40;99.90;;;;;;5046595;28;20852;-68
2021/07/27 06:49:39;;;;;;;6.63;4.37;;;24.40;99.90;;;;;;5032017;28;20474;-68
2021/07/27 06:52:08;;;;;;;6.30;4.30;;;24.40;99.90;;;;;;5031615;28;20391;-68
2021/07/27 06:54:36;;;;;;;3.57;3.27;;;24.60;99.90;;;;;;5030664;28;20673;-69
2021/07/27 06:57:04;;;;;;;5.00;4.50;;;24.40;99.90;;;;;;5046562;28;20440;-67
2021/07/27 06:59:33;;;;;;;8.13;4.20;;;24.30;99.90;;;;;;5046686;28;20962;-67
2021/07/27 07:02:01;;;;;;;6.77;3.17;;;24.40;99.90;;;;;;5031231;28;21015;-68
2021/07/27 07:04:31;;;;;;;4.20;3.40;;;24.40;99.90;;;;;;5031706;28;20492;-69
2021/07/27 07:06:59;;;;;;;5.20;4.27;;;24.40;99.90;;;;;;5031888;28;20391;-68
2021/07/27 07:09:27;;;;;;;3.90;3.47;;;24.50;99.90;;;;;;5030525;28;20440;-68
2021/07/27 07:11:55;;;;;;;4.60;3.20;;;24.50;99.90;;;;;;5030607;28;20506;-68
2021/07/27 07:14:23;;;;;;;4.83;3.90;;;24.50;99.90;;;;;;5031447;28;20786;-68
2021/07/27 07:16:51;;;;;;;3.80;3.40;;;24.50;99.90;;;;;;5030285;28;20838;-68
2021/07/27 07:19:20;;;;;;;3.67;3.20;;;24.60;99.90;;;;;;5046980;28;20924;-68
2021/07/27 07:21:49;;;;;;;5.43;3.77;;;24.70;99.90;;;;;;5031748;28;20452;-68
2021/07/27 07:24:17;;;;;;;4.27;3.87;;;24.90;99.90;;;;;;5046120;28;20444;-67
2021/07/27 07:26:46;;;;;;;4.50;4.10;;;25.10;99.90;;;;;;5029480;28;20414;-67
2021/07/27 07:29:14;;;;;;;7.47;5.23;;;25.20;99.90;;;;;;5030532;28;20514;-68
2021/07/27 07:31:42;;;;;;;4.70;4.30;;;25.20;99.90;;;;;;5030553;28;20942;-69
2021/07/27 07:34:10;;;;;;;4.67;4.17;;;25.30;99.90;;;;;;5030034;28;20896;-68
2021/07/27 07:36:39;;;;;;;5.60;3.10;;;25.30;99.90;;;;;;5030133;28;20390;-67
2021/07/27 07:39:08;;;;;;;7.00;4.13;;;25.30;99.90;;;;;;5045158;28;20415;-68
2021/07/27 07:41:36;;;;;;;5.03;4.07;;;25.30;99.90;;;;;;5030243;28;20440;-68
2021/07/27 07:44:05;;;;;;;4.37;3.43;;;25.60;99.90;;;;;;5030211;28;20973;-67
2021/07/27 07:46:33;;;;;;;5.47;3.80;;;25.90;99.90;;;;;;5045117;28;20474;-70
2021/07/27 07:49:01;;;;;;;4.80;3.93;;;25.80;99.90;;;;;;5045815;28;20478;-69
2021/07/27 07:51:30;;;;;;;5.33;3.73;;;25.60;99.90;;;;;;5030180;28;21005;-69
2021/07/27 07:53:58;;;;;;;5.27;3.63;;;25.70;99.90;;;;;;5030128;28;20776;-68
2021/07/27 07:56:27;;;;;;;4.50;3.77;;;25.80;99.90;;;;;;5028104;28;20939;-67
2021/07/27 07:58:56;;;;;;;4.10;3.30;;;25.90;99.90;;;;;;5029811;28;20420;-67
2021/07/27 08:01:24;;;;;;;3.60;3.03;;;26.00;99.90;;;;;;5029371;28;20982;-69
2021/07/27 08:03:53;;;;;;;3.60;3.30;;;26.20;99.90;;;;;;5029460;28;20424;-64
2021/07/27 08:06:21;;;;;;;4.43;3.30;;;26.10;99.90;;;;;;5028959;28;20518;-64
2021/07/27 08:08:49;;;;;;;4.73;4.00;;;26.10;99.90;;;;;;5029483;28;20430;-65
2021/07/27 08:11:18;;;;;;;6.30;3.90;;;26.10;99.90;;;;;;5028186;28;20431;-66
2021/07/27 08:13:47;;;;;;;4.00;3.60;;;26.00;99.90;;;;;;5028858;28;20938;-65
2021/07/27 08:16:15;;;;;;;4.07;3.70;;;26.00;99.90;;;;;;5028740;28;20767;-65
2021/07/27 08:18:44;;;;;;;4.20;3.73;;;26.00;99.90;;;;;;5029028;28;20490;-65
2021/07/27 08:21:12;;;;;;;4.03;3.43;;;26.00;99.90;;;;;;5027731;28;20677;-65
2021/07/27 08:23:44;;;;;;;4.33;3.77;;;26.00;99.90;;;;;;5029317;28;20416;-67
2021/07/27 08:26:13;;;;;;;5.10;4.27;;;26.10;99.90;;;;;;5028764;28;20464;-69
2021/07/27 08:28:42;;;;;;;4.27;3.63;;;26.30;99.90;;;;;;5029471;28;20417;-67
2021/07/27 08:31:12;;;;;;;4.90;4.27;;;26.40;99.90;;;;;;5028793;28;20456;-68
2021/07/27 08:33:40;;;;;;;4.77;3.43;;;26.60;99.90;;;;;;5029229;28;20820;-65
2021/07/27 08:36:09;;;;;;;8.13;3.70;;;26.70;99.90;;;;;;5028581;28;20439;-67
2021/07/27 08:38:37;;;;;;;4.43;3.67;;;26.70;99.90;;;;;;5028544;28;20423;-67
2021/07/27 08:41:07;;;;;;;4.20;3.53;;;26.60;99.90;;;;;;5028955;28;20444;-71
2021/07/27 08:43:35;;;;;;;4.87;4.47;;;26.60;99.90;;;;;;5027261;28;20539;-68
2021/07/27 08:46:04;;;;;;;4.70;3.40;;;26.60;99.90;;;;;;5043712;28;20464;-68
2021/07/27 08:48:36;;;;;;;5.13;3.53;;;26.60;99.90;;;;;;5029053;28;20435;-67
2021/07/27 08:51:05;;;;;;;5.60;3.10;;;26.50;99.90;;;;;;5029226;28;20448;-69
2021/07/27 08:53:33;;;;;;;5.97;2.87;;;26.50;99.90;;;;;;5044654;28;20444;-68
2021/07/27 08:56:02;;;;;;;6.00;3.90;;;26.50;99.90;;;;;;5029604;28;20775;-67
2021/07/27 08:58:31;;;;;;;2.77;2.57;;;26.60;99.90;;;;;;5028835;28;20424;-67
2021/07/27 09:00:59;;;;;;;3.00;2.57;;;26.70;99.90;;;;;;5044517;28;20709;-67
2021/07/27 09:03:28;;;;;;;3.53;2.97;;;26.80;99.90;;;;;;5027202;28;20428;-70
2021/07/27 09:06:08;;;;;;;3.37;2.57;;;26.70;99.90;;;;;;5044387;28;20468;-69
2021/07/27 09:08:36;;;;;;;5.70;3.10;;;26.80;99.90;;;;;;5028974;28;20791;-68
2021/07/27 09:11:04;;;;;;;3.20;2.80;;;26.70;99.90;;;;;;5018138;28;20463;-68
2021/07/27 09:13:34;;;;;;;4.47;2.67;;;26.60;99.90;;;;;;5008784;28;20431;-67
2021/07/27 09:16:03;;;;;;;4.50;3.30;;;26.60;99.90;;;;;;5007406;28;20975;-67
2021/07/27 09:18:32;;;;;;;3.23;2.30;;;26.60;99.90;;;;;;5008589;28;20648;-67
2021/07/27 09:21:02;;;;;;;2.73;2.30;;;26.50;99.90;;;;;;5009035;28;20457;-67
2021/07/27 09:23:33;;;;;;;3.80;3.03;;;26.40;99.90;;;;;;5023853;28;20460;-67
2021/07/27 09:26:01;;;;;;;2.80;2.60;;;26.20;99.90;;;;;;5026200;28;21055;-67
2021/07/27 09:28:30;;;;;;;3.40;2.77;;;26.40;99.90;;;;;;5027589;28;20456;-69
2021/07/27 09:31:00;;;;;;;2.77;2.57;;;26.60;99.90;;;;;;5013228;28;20959;-66
2021/07/27 09:33:32;;;;;;;3.23;2.47;;;27.00;99.90;;;;;;5012643;28;20528;-67
2021/07/27 09:36:01;;;;;;;3.10;2.73;;;27.40;99.90;;;;;;5012917;28;20479;-67
2021/07/27 09:38:32;;;;;;;4.60;3.50;;;27.40;99.90;;;;;;5012481;28;20429;-66
2021/07/27 09:41:04;;;;;;;5.00;3.03;;;27.60;99.90;;;;;;5027667;28;20468;-69
2021/07/27 09:43:44;;;;;;;3.67;3.27;;;27.70;99.90;;;;;;5012567;28;20424;-68
2021/07/27 09:46:13;;;;;;;3.47;3.17;;;27.80;99.90;;;;;;5027696;28;20460;-67
2021/07/27 09:48:41;;;;;;;2.70;2.50;;;27.50;99.90;;;;;;5046379;28;20446;-67
2021/07/27 09:51:11;;;;;;;4.23;3.20;;;27.60;99.90;;;;;;5032829;28;20463;-66
2021/07/27 09:53:42;;;;;;;3.93;2.60;;;27.90;99.90;;;;;;5032265;28;20458;-67
2021/07/27 09:56:11;;;;;;;2.87;2.60;;;28.00;99.90;;;;;;5032337;28;20439;-66
2021/07/27 09:58:40;;;;;;;3.80;3.23;;;27.80;99.90;;;;;;5047203;28;20436;-67
2021/07/27 10:01:11;;;;;;;4.03;3.30;;;27.40;99.90;;;;;;5032355;28;20648;-67
2021/07/27 10:03:48;;;;;;;2.77;2.57;;;27.00;99.90;;;;;;5047539;28;20436;-68
2021/07/27 10:06:27;;;;;;;5.10;3.60;;;26.80;99.90;;;;;;5032249;28;20474;-68
2021/07/27 10:08:57;;;;;;;3.90;3.40;;;26.80;99.90;;;;;;5032206;28;20844;-68
2021/07/27 10:11:41;;;;;;;5.33;3.77;;;26.40;99.90;;;;;;5047662;28;20901;-68
2021/07/27 10:14:11;;;;;;;4.87;4.37;;;26.20;99.90;;;;;;5046906;28;20422;-70
2021/07/27 10:16:40;;;;;;;4.87;4.37;;;25.50;99.90;;;;;;5031737;28;20420;-70
2021/07/27 10:19:17;;;;;;;6.30;4.93;;;25.20;99.90;;;;;;5031606;28;20515;-69
2021/07/27 10:21:46;;;;;;;4.93;4.43;;;25.10;28.70;;;;;;5047183;28;20486;-67
2021/07/27 10:24:17;;;;;;;4.77;4.00;;;25.30;33.10;;;;;;5032000;28;20430;-68
2021/07/27 10:26:48;;;;;;;4.30;3.90;;;25.70;46.60;;;;;;5031574;28;20502;-68
2021/07/27 10:29:28;;;;;;;4.40;4.10;;;26.20;28.20;;;;;;5031725;28;20809;-68
2021/07/27 10:31:59;;;;;;;4.30;3.73;;;26.50;24.30;;;;;;5032237;28;20963;-66
2021/07/27 10:34:33;;;;;;;4.50;3.63;;;26.80;13.40;;;;;;5046982;28;20463;-68
2021/07/27 10:37:07;;;;;;;5.30;4.30;;;27.10;17.30;;;;;;5030980;28;20470;-68
2021/07/27 10:39:50;;;;;;;4.97;4.50;;;26.80;15.10;;;;;;5031568;28;20518;-67
2021/07/27 10:42:20;;;;;;;5.70;3.70;;;26.60;19.70;;;;;;5032526;28;20426;-67
2021/07/27 10:44:49;;;;;;;5.50;4.23;;;26.80;1.00;;;;;;5031102;28;20506;-66
2021/07/27 10:47:20;;;;;;;4.90;4.13;;;27.10;10.00;;;;;;5047580;28;20463;-67
2021/07/27 10:50:00;;;;;;;4.00;3.60;;;27.60;1.10;;;;;;5047396;28;20527;-68
2021/07/27 10:52:29;;;;;;;3.90;2.93;;;27.80;14.80;;;;;;5031883;28;20439;-68
2021/07/27 10:54:58;;;;;;;4.60;4.20;;;27.90;99.90;;;;;;5029964;28;20847;-67
2021/07/27 10:57:34;;;;;;;8.93;3.57;;;27.90;99.90;;;;;;5032042;28;20424;-67
2021/07/27 11:00:03;;;;;;;9.10;8.10;;;27.60;99.90;;;;;;5031765;28;20424;-67
2021/07/27 11:02:31;;;;;;;5.83;4.50;;;27.50;1.00;;;;;;5031784;28;20432;-66
2021/07/27 11:05:00;;;;;;;5.50;3.77;;;27.60;1.00;;;;;;5031590;28;20432;-69
2021/07/27 11:07:33;;;;;;;4.83;3.87;;;28.00;1.00;;;;;;5047469;28;20459;-68
2021/07/27 11:10:31;;;;;;;3.77;3.27;;;28.10;99.90;;;;;;5051416;23;20569;-84
2021/07/27 11:53:03;;;;;;;3.93;3.00;;;28.30;99.90;;;;;;5020566;28;20376;-84
2021/07/27 11:55:39;;;;;;;4.10;3.30;;;28.90;99.90;;;;;;5029715;28;20459;-84
2021/07/27 11:58:12;;;;;;;3.43;3.13;;;29.10;99.90;;;;;;5034870;28;20426;-82
2021/07/27 12:00:56;;;;;;;3.23;2.73;;;29.00;99.90;;;;;;5037876;28;20467;-82
2021/07/27 12:03:40;;;;;;;4.87;2.97;;;28.40;99.90;;;;;;5053571;28;20396;-82
2021/07/27 12:06:12;;;;;;;3.43;3.00;;;28.00;99.90;;;;;;5038069;28;20489;-82
2021/07/27 12:08:43;;;;;;;3.43;3.10;;;28.10;99.90;;;;;;5037273;28;20479;-82
2021/07/27 12:11:11;;;;;;;3.37;3.07;;;28.40;99.90;;;;;;5042665;28;20430;-83
2021/07/27 12:13:39;;;;;;;4.00;2.80;;;28.60;99.90;;;;;;5033636;28;20430;-86
2021/07/27 12:16:07;;;;;;;3.70;3.20;;;28.80;99.90;;;;;;5018363;28;20434;-82
2021/07/27 12:18:36;;;;;;;3.50;3.17;;;29.20;99.90;;;;;;5011737;28;20442;-85
2021/07/27 12:21:04;;;;;;;4.43;3.20;;;29.50;99.90;;;;;;4998888;28;20980;-83
2021/07/27 12:23:33;;;;;;;3.87;3.43;;;29.40;99.90;;;;;;5011407;28;20429;-86
2021/07/27 12:26:05;;;;;;;7.30;3.20;;;29.40;99.90;;;;;;5034140;28;20437;-83
2021/07/27 12:28:34;;;;;;;3.70;3.17;;;29.80;99.90;;;;;;5034373;28;20479;-84
2021/07/27 12:31:02;;;;;;;3.63;3.07;;;29.70;99.90;;;;;;5019787;28;20440;-82
2021/07/27 12:33:30;;;;;;;5.50;2.73;;;29.40;99.90;;;;;;5019978;28;20429;-84
2021/07/27 12:36:00;;;;;;;4.60;3.63;;;29.10;99.90;;;;;;5020072;28;20433;-82
2021/07/27 12:38:30;;;;;;;3.47;2.20;;;29.10;99.90;;;;;;5018719;28;20429;-82
2021/07/27 12:40:58;;;;;;;4.27;2.73;;;29.10;99.90;;;;;;5019784;28;20472;-83
2021/07/27 12:43:28;;;;;;;4.17;2.87;;;29.00;99.90;;;;;;5035197;28;20912;-83
2021/07/27 12:45:57;;;;;;;3.50;2.80;;;28.80;99.90;;;;;;5035950;28;20844;-84
2021/07/27 12:48:25;;;;;;;3.40;2.80;;;28.80;99.90;;;;;;5021942;28;20456;-83
2021/07/27 12:50:53;;;;;;;4.07;3.50;;;28.60;99.90;;;;;;5026428;28;20501;-84
2021/07/27 12:53:26;;;;;;;2.57;2.33;;;28.60;99.90;;;;;;5029028;28;20437;-83
2021/07/27 12:55:56;;;;;;;3.80;2.90;;;28.50;99.90;;;;;;5028847;28;20432;-82
2021/07/27 12:58:24;;;;;;;3.10;2.83;;;28.40;99.90;;;;;;5018193;28;20425;-80
2021/07/27 13:00:54;;;;;;;4.23;2.30;;;28.50;99.90;;;;;;5016958;28;20448;-81
2021/07/27 13:03:22;;;;;;;3.03;2.60;;;28.60;99.90;;;;;;5011080;28;20487;-81
2021/07/27 13:05:52;;;;;;;4.23;3.00;;;29.20;99.90;;;;;;5004892;28;20446;-81
2021/07/27 13:08:20;;;;;;;3.37;2.57;;;29.80;99.90;;;;;;4998150;28;20465;-83
2021/07/27 13:10:49;;;;;;;3.50;2.50;;;29.60;99.90;;;;;;5020561;28;20984;-82
2021/07/27 13:13:17;;;;;;;3.30;2.50;;;29.50;99.90;;;;;;5033263;28;20449;-81
2021/07/27 13:15:46;;;;;;;4.80;3.23;;;29.30;99.90;;;;;;5033675;28;20445;-82
2021/07/27 13:18:16;;;;;;;2.80;2.30;;;29.10;99.90;;;;;;4998496;28;20820;-82
2021/07/27 13:20:45;;;;;;;4.27;3.20;;;28.40;99.90;;;;;;5013684;28;20470;-80
2021/07/27 13:23:13;;;;;;;3.00;2.30;;;28.10;99.90;;;;;;5013351;28;20896;-82
2021/07/27 13:25:41;;;;;;;3.10;2.40;;;28.00;99.90;;;;;;4997069;28;20434;-81
2021/07/27 13:28:09;;;;;;;2.40;2.13;;;28.30;99.90;;;;;;4996533;28;20501;-81
2021/07/27 13:30:37;;;;;;;2.50;2.30;;;28.70;99.90;;;;;;5013261;28;21049;-81
2021/07/27 13:33:06;;;;;;;2.77;2.40;;;28.90;99.90;;;;;;4997295;28;20469;-80
2021/07/27 13:35:36;;;;;;;2.83;2.30;;;28.90;99.90;;;;;;4996612;28;20470;-82
2021/07/27 13:38:04;;;;;;;2.80;2.47;;;28.80;99.90;;;;;;4998721;28;20430;-81
2021/07/27 13:40:32;;;;;;;3.10;2.40;;;28.90;99.90;;;;;;4997396;28;20461;-83
2021/07/27 13:43:00;;;;;;;2.47;2.10;;;29.10;99.90;;;;;;5015907;28;20453;-83
2021/07/27 13:45:28;;;;;;;3.17;2.37;;;29.10;99.90;;;;;;5033883;28;20803;-82
2021/07/27 13:47:58;;;;;;;3.13;2.83;;;28.60;99.90;;;;;;5017360;28;20465;-82
2021/07/27 13:50:26;;;;;;;3.07;2.43;;;28.10;99.90;;;;;;4999058;28;21053;-82
2021/07/27 13:52:55;;;;;;;3.07;2.63;;;28.10;99.90;;;;;;4998599;28;20430;-81
2021/07/27 13:55:23;;;;;;;2.77;2.57;;;27.90;99.90;;;;;;4998026;28;20441;-82
2021/07/27 13:57:51;;;;;;;3.40;2.77;;;28.00;99.90;;;;;;4998125;28;20457;-81